Time;durP1;ratioP1;P1;durP2;ratioP2;P2;SDS_P1;SDS_P2;PMS_P1;PMS_P2;Temp;Humidity;BMP_temperature;BMP_pressure;BME280_temperature;BME280_humidity;BME280_pressure;Samples;Min_cycle;Max_cycle;Signal;HPM_P1;HPM_P2
2022/01/28 00:04:23;;;;;;;221.32;171.95;;;19.70;44.20;;;;;;4737687;59;22218;-58
2022/01/28 00:09:25;;;;;;;224.88;180.15;;;19.70;44.20;;;;;;4789183;55;21512;-37
2022/01/28 00:14:37;;;;;;;220.65;175.07;;;19.70;44.20;;;;;;4755659;55;21590;-35
2022/01/28 00:20:39;;;;;;;227.90;184.32;;;19.70;44.00;;;;;;4737717;59;21006;-56
2022/01/28 00:43:11;;;;;;;229.50;182.48;;;19.60;43.90;;;;;;4738793;55;21057;-48
2022/01/28 00:48:12;;;;;;;222.40;171.95;;;19.60;43.70;;;;;;4740380;55;21468;-51
2022/01/28 00:53:13;;;;;;;215.95;167.18;;;19.60;43.70;;;;;;4741216;55;21005;-56
2022/01/28 00:58:14;;;;;;;221.45;175.38;;;19.60;43.60;;;;;;4737889;56;21038;-42
2022/01/28 01:03:15;;;;;;;218.65;172.65;;;19.60;43.60;;;;;;4740857;55;21568;-45
2022/01/28 01:08:17;;;;;;;209.62;160.48;;;19.60;43.60;;;;;;4741578;55;21491;-42
2022/01/28 01:13:18;;;;;;;209.35;165.23;;;19.50;43.40;;;;;;4738502;55;21133;-59
2022/01/28 01:18:34;;;;;;;218.88;173.18;;;19.50;43.40;;;;;;4739702;55;21536;-52
2022/01/28 01:23:37;;;;;;;218.07;172.60;;;19.60;43.50;;;;;;4750244;55;21595;-45
2022/01/28 01:28:40;;;;;;;204.18;160.75;;;19.50;43.20;;;;;;4738732;55;21484;-54
2022/01/28 01:34:09;;;;;;;212.80;164.57;;;19.50;43.30;;;;;;4773411;55;21176;-51
2022/01/28 01:39:19;;;;;;;212.65;162.00;;;19.50;43.30;;;;;;4768149;55;21492;-39
2022/01/28 01:55:05;;;;;;;211.80;165.45;;;19.50;43.10;;;;;;4766367;55;21520;-49
2022/01/28 02:00:07;;;;;;;202.27;158.73;;;19.50;43.00;;;;;;4787206;55;21049;-39
2022/01/28 02:05:09;;;;;;;198.00;152.20;;;19.50;43.10;;;;;;4761560;55;20986;-44
2022/01/28 02:10:10;;;;;;;190.23;142.70;;;19.50;42.90;;;;;;4760205;55;21084;-46
2022/01/28 02:15:11;;;;;;;206.80;158.57;;;19.50;42.80;;;;;;4758836;55;21050;-44
2022/01/28 02:20:31;;;;;;;196.90;153.23;;;19.50;42.90;;;;;;4762048;55;21049;-43
2022/01/28 02:25:33;;;;;;;202.52;159.57;;;19.50;42.80;;;;;;4737580;59;22529;-57
2022/01/28 02:30:34;;;;;;;200.20;157.18;;;19.50;42.80;;;;;;4756254;55;21994;-45
2022/01/28 02:35:35;;;;;;;196.35;153.95;;;19.40;42.60;;;;;;4756437;55;21017;-53
2022/01/28 02:40:37;;;;;;;198.68;153.95;;;19.40;42.60;;;;;;4738555;59;21476;-59
2022/01/28 02:45:40;;;;;;;190.52;147.18;;;19.40;42.70;;;;;;4766967;55;22269;-38
2022/01/28 02:50:49;;;;;;;184.25;143.13;;;19.40;42.50;;;;;;4745660;55;21559;-59
2022/01/28 02:55:58;;;;;;;186.98;148.18;;;19.40;42.50;;;;;;4762718;55;21070;-60
2022/01/28 03:00:59;;;;;;;188.02;145.48;;;19.40;42.50;;;;;;4743771;55;21491;-59
2022/01/28 03:06:00;;;;;;;181.65;142.35;;;19.40;42.40;;;;;;4737108;59;21022;-40
2022/01/28 03:16:21;;;;;;;186.73;145.27;;;19.40;42.30;;;;;;4746857;55;22251;-37
2022/01/28 03:27:04;;;;;;;173.20;136.75;;;19.40;42.20;;;;;;4774105;55;21049;-41
2022/01/28 03:32:05;;;;;;;175.77;136.82;;;19.40;42.10;;;;;;4749826;55;21488;-42
2022/01/28 03:37:08;;;;;;;173.98;136.02;;;19.40;42.20;;;;;;4761077;55;21876;-45
2022/01/28 03:42:09;;;;;;;177.90;136.12;;;19.30;42.10;;;;;;4751409;55;21467;-59
2022/01/28 03:47:10;;;;;;;167.68;130.23;;;19.40;42.10;;;;;;4736828;59;21081;-37
2022/01/28 03:52:11;;;;;;;178.02;138.45;;;19.30;41.90;;;;;;4745892;55;21009;-35
2022/01/28 03:57:12;;;;;;;171.73;134.20;;;19.40;42.00;;;;;;4752367;55;21006;-54
2022/01/28 04:02:13;;;;;;;169.37;134.95;;;19.30;41.90;;;;;;4738224;55;21072;-35
2022/01/28 04:12:40;;;;;;;158.20;124.57;;;19.30;41.90;;;;;;4737695;55;21149;-38
2022/01/28 04:17:40;;;;;;;159.05;127.50;;;19.30;41.80;;;;;;4750638;55;21660;-51
2022/01/28 04:22:41;;;;;;;160.65;128.05;;;19.30;41.90;;;;;;4748174;55;21143;-54
2022/01/28 04:27:42;;;;;;;156.87;126.10;;;19.30;41.80;;;;;;4737944;59;21066;-51
2022/01/28 04:32:46;;;;;;;149.60;118.22;;;19.30;41.80;;;;;;4749309;55;21005;-61
2022/01/28 04:46:40;;;;;;;152.98;120.30;;;19.30;41.80;;;;;;4774598;55;21585;-42
2022/01/28 04:52:43;;;;;;;145.60;117.13;;;19.30;41.80;;;;;;4738837;55;21634;-51
2022/01/28 04:58:39;;;;;;;141.65;110.35;;;19.30;41.80;;;;;;4769957;55;21590;-53
2022/01/28 05:11:39;;;;;;;145.27;117.05;;;19.30;41.90;;;;;;4769819;55;21026;-39
2022/01/28 05:27:19;;;;;;;137.07;111.28;;;19.30;42.00;;;;;;4736881;55;21037;-43
2022/01/28 05:32:20;;;;;;;135.95;109.65;;;19.20;42.00;;;;;;4744736;55;21460;-41
2022/01/28 05:37:20;;;;;;;131.32;105.35;;;19.30;42.10;;;;;;4751606;55;21074;-41
2022/01/28 05:42:21;;;;;;;135.20;108.22;;;19.20;42.10;;;;;;4776184;55;20998;-48
2022/01/28 05:47:24;;;;;;;141.80;110.32;;;19.30;42.30;;;;;;4760953;55;21005;-47
2022/01/28 05:52:25;;;;;;;135.63;106.00;;;19.20;42.20;;;;;;4745977;55;21480;-39
2022/01/28 05:57:26;;;;;;;137.00;108.20;;;19.20;42.20;;;;;;4777907;55;21119;-45
2022/01/28 06:02:26;;;;;;;130.30;105.37;;;19.20;42.20;;;;;;4776620;55;20982;-40
2022/01/28 06:07:27;;;;;;;127.85;103.03;;;19.20;42.20;;;;;;4740687;55;21121;-35
2022/01/28 06:12:28;;;;;;;131.98;105.65;;;19.20;42.20;;;;;;4750560;55;21022;-42
2022/01/28 06:17:29;;;;;;;122.43;98.72;;;19.20;42.20;;;;;;4743990;55;21583;-38
2022/01/28 06:22:30;;;;;;;124.68;100.68;;;19.20;42.10;;;;;;4758100;55;21143;-62
2022/01/28 06:27:31;;;;;;;129.52;103.15;;;19.20;42.10;;;;;;4738353;59;21054;-36
2022/01/28 06:32:33;;;;;;;120.85;94.45;;;19.20;42.10;;;;;;4772149;55;21010;-42
2022/01/28 06:37:35;;;;;;;124.07;98.97;;;19.20;42.10;;;;;;4749214;55;21014;-62
2022/01/28 06:42:36;;;;;;;124.38;100.65;;;19.20;42.10;;;;;;4738022;59;21062;-41
2022/01/28 06:47:37;;;;;;;122.03;101.20;;;19.20;42.10;;;;;;4738188;55;21090;-45
2022/01/28 06:52:39;;;;;;;120.47;96.68;;;19.20;42.10;;;;;;4781683;55;21010;-36
2022/01/28 06:57:40;;;;;;;121.78;97.22;;;19.20;42.00;;;;;;4749334;55;21620;-45
2022/01/28 07:02:41;;;;;;;120.97;96.90;;;19.20;42.00;;;;;;4790967;55;21049;-35
2022/01/28 07:07:42;;;;;;;123.85;99.60;;;19.20;42.10;;;;;;4766956;55;21547;-41
2022/01/28 07:12:43;;;;;;;121.00;99.15;;;19.10;42.10;;;;;;4744078;55;20994;-41
2022/01/28 07:17:44;;;;;;;120.97;98.47;;;19.20;42.60;;;;;;4741367;55;21051;-51
2022/01/28 07:22:45;;;;;;;119.68;97.43;;;19.10;41.90;;;;;;4737843;59;21041;-37
2022/01/28 07:27:47;;;;;;;125.25;102.20;;;19.10;41.90;;;;;;4760377;55;21231;-53
2022/01/28 07:32:50;;;;;;;123.35;101.00;;;19.10;41.90;;;;;;4763922;55;20994;-42
2022/01/28 07:37:50;;;;;;;123.93;100.70;;;19.10;41.90;;;;;;4759788;55;21459;-46
2022/01/28 07:42:51;;;;;;;113.68;91.68;;;19.10;41.80;;;;;;4763800;55;21054;-60
2022/01/28 07:47:53;;;;;;;120.55;94.37;;;19.10;41.80;;;;;;4737901;59;21641;-56
2022/01/28 07:52:53;;;;;;;125.75;101.97;;;19.10;41.70;;;;;;4755724;55;21514;-41
2022/01/28 07:57:54;;;;;;;126.40;102.72;;;19.10;41.80;;;;;;4754421;55;21051;-53
2022/01/28 08:02:55;;;;;;;124.55;101.50;;;19.10;41.70;;;;;;4745468;55;21085;-45
2022/01/28 08:07:56;;;;;;;132.18;103.82;;;19.20;41.90;;;;;;4746039;55;21539;-52
2022/01/28 08:12:57;;;;;;;129.38;103.97;;;19.50;42.00;;;;;;4737717;59;21033;-37
2022/01/28 08:17:58;;;;;;;132.55;102.35;;;19.70;41.90;;;;;;4747368;55;21477;-50
2022/01/28 08:22:59;;;;;;;126.28;100.22;;;19.90;41.90;;;;;;4759173;55;20993;-49
2022/01/28 08:28:02;;;;;;;131.60;103.32;;;20.10;42.10;;;;;;4738696;59;21339;-51
2022/01/28 08:33:04;;;;;;;132.80;104.15;;;20.20;42.20;;;;;;4751857;55;21368;-45
2022/01/28 08:38:14;;;;;;;137.27;106.05;;;20.40;42.20;;;;;;4779382;55;21628;-40
2022/01/28 08:43:15;;;;;;;137.10;107.85;;;20.50;42.30;;;;;;4761131;55;21528;-36
2022/01/28 08:48:16;;;;;;;135.90;105.22;;;20.60;42.40;;;;;;4758431;55;21081;-44
2022/01/28 08:53:17;;;;;;;141.37;111.43;;;20.70;42.50;;;;;;4763981;55;21018;-45
2022/01/28 08:58:18;;;;;;;138.68;110.55;;;20.80;42.50;;;;;;4741773;55;21487;-52
2022/01/28 09:03:21;;;;;;;141.32;110.45;;;20.90;42.60;;;;;;4742412;55;21193;-46
2022/01/28 09:08:22;;;;;;;142.32;112.43;;;21.00;42.70;;;;;;4765212;55;21476;-40
2022/01/28 09:13:37;;;;;;;144.93;112.47;;;21.10;42.80;;;;;;4739537;55;21090;-35
2022/01/28 09:18:38;;;;;;;149.12;116.82;;;21.10;42.70;;;;;;4744101;55;21469;-45
2022/01/28 09:23:39;;;;;;;145.90;116.20;;;21.20;43.00;;;;;;4747280;55;21103;-48
2022/01/28 09:28:41;;;;;;;146.68;117.90;;;21.20;43.10;;;;;;4744240;55;21560;-36
2022/01/28 09:33:45;;;;;;;153.60;119.18;;;21.30;43.20;;;;;;4749801;55;22411;-39
2022/01/28 09:38:46;;;;;;;152.52;119.13;;;21.30;43.30;;;;;;4758627;55;21595;-51
2022/01/28 09:43:47;;;;;;;153.40;118.80;;;21.30;43.40;;;;;;4737994;55;21045;-48
2022/01/28 09:48:48;;;;;;;153.65;121.07;;;21.40;43.40;;;;;;4739727;55;21013;-45
2022/01/28 09:53:49;;;;;;;161.62;125.00;;;21.40;43.50;;;;;;4750141;55;20990;-39
2022/01/28 09:58:50;;;;;;;157.88;123.90;;;21.50;43.60;;;;;;4743647;55;21548;-45
2022/01/28 10:04:04;;;;;;;165.77;130.00;;;21.50;43.60;;;;;;4765069;55;21065;-54
2022/01/28 10:09:09;;;;;;;170.43;131.63;;;21.50;43.30;;;;;;4872789;55;21475;-44
2022/01/28 10:14:16;;;;;;;173.38;133.23;;;21.60;43.20;;;;;;4737454;55;21575;-46
2022/01/28 10:19:17;;;;;;;176.23;135.68;;;21.60;43.10;;;;;;4752018;55;22049;-54
2022/01/28 10:24:24;;;;;;;177.85;136.57;;;21.60;43.00;;;;;;4738956;55;21046;-36
2022/01/28 10:29:33;;;;;;;182.55;139.27;;;21.70;43.00;;;;;;4773894;55;21006;-64
2022/01/28 10:34:48;;;;;;;180.18;142.15;;;21.70;42.90;;;;;;4750085;55;21124;-44
2022/01/28 10:39:52;;;;;;;189.15;144.35;;;21.70;42.80;;;;;;4737727;57;21081;-43
2022/01/28 10:45:11;;;;;;;186.00;143.52;;;21.70;42.70;;;;;;4752528;55;21070;-41
2022/01/28 10:50:33;;;;;;;188.02;144.82;;;21.70;42.80;;;;;;4758997;55;21983;-43
2022/01/28 10:55:40;;;;;;;194.25;148.90;;;21.80;43.60;;;;;;4746888;55;21072;-48
2022/01/28 11:00:46;;;;;;;197.90;152.60;;;21.80;42.90;;;;;;4738832;55;21160;-41
2022/01/28 11:05:48;;;;;;;197.10;154.38;;;21.80;42.90;;;;;;4742506;55;21022;-40
2022/01/28 11:10:49;;;;;;;198.52;153.85;;;21.90;43.10;;;;;;4755722;55;21282;-44
2022/01/28 11:15:50;;;;;;;206.60;161.77;;;21.90;43.30;;;;;;4737227;59;22342;-44
2022/01/28 11:20:55;;;;;;;208.35;160.90;;;21.90;43.20;;;;;;4767682;55;21097;-46
2022/01/28 11:27:31;;;;;;;212.25;166.70;;;21.90;43.30;;;;;;4774741;55;21033;-44
2022/01/28 11:32:51;;;;;;;;;;;21.90;43.30;;;;;;4752378;55;21006;-44
2022/01/28 11:37:54;;;;;;;212.80;167.52;;;22.00;43.40;;;;;;4767216;55;20158;-40
2022/01/28 11:43:17;;;;;;;219.62;177.02;;;22.00;43.50;;;;;;4737814;59;21528;-37
2022/01/28 11:48:18;;;;;;;218.50;172.65;;;22.00;43.60;;;;;;4758907;55;21101;-42
2022/01/28 11:53:24;;;;;;;227.20;175.65;;;22.00;43.70;;;;;;4741309;55;22080;-43
2022/01/28 11:58:51;;;;;;;224.80;173.52;;;22.00;43.80;;;;;;4772870;55;21554;-41
2022/01/28 12:07:43;;;;;;;226.80;180.12;;;22.10;44.00;;;;;;4737790;59;21562;-37
2022/01/28 12:12:57;;;;;;;239.05;186.57;;;22.20;44.20;;;;;;4747305;55;21594;-41
2022/01/28 12:18:11;;;;;;;241.90;192.77;;;22.10;43.90;;;;;;4758613;55;21524;-43
2022/01/28 12:23:33;;;;;;;230.52;187.93;;;22.00;43.70;;;;;;4751681;55;21046;-37
2022/01/28 12:28:46;;;;;;;240.40;187.93;;;22.00;43.60;;;;;;4747661;55;21010;-42
2022/01/28 12:33:50;;;;;;;244.77;193.35;;;22.00;43.50;;;;;;4737274;59;21190;-39
2022/01/28 12:46:10;;;;;;;257.17;207.02;;;22.00;43.40;;;;;;4767020;55;21171;-45
2022/01/28 12:51:11;;;;;;;247.68;200.60;;;22.00;43.10;;;;;;4737429;57;21002;-38
2022/01/28 12:56:14;;;;;;;246.10;201.98;;;22.00;43.40;;;;;;4748675;55;21494;-45
2022/01/28 13:01:17;;;;;;;249.43;204.55;;;22.10;43.60;;;;;;4749340;55;22184;-44
2022/01/28 13:14:02;;;;;;;245.48;199.05;;;22.20;44.00;;;;;;4742508;55;21178;-42
2022/01/28 13:19:05;;;;;;;262.08;208.55;;;22.20;44.20;;;;;;4746525;55;21081;-43
2022/01/28 13:24:39;;;;;;;256.25;208.25;;;22.20;44.30;;;;;;4778642;55;21030;-40
2022/01/28 13:29:48;;;;;;;260.88;211.20;;;22.20;44.40;;;;;;4738480;59;21038;-44
2022/01/28 13:34:57;;;;;;;247.20;204.98;;;22.30;44.60;;;;;;4761298;55;22303;-49
2022/01/28 13:39:59;;;;;;;257.15;207.27;;;22.30;44.80;;;;;;4768146;55;21093;-38
2022/01/28 13:45:04;;;;;;;258.27;209.77;;;22.30;45.00;;;;;;4786968;55;21044;-51
2022/01/28 13:50:06;;;;;;;249.70;205.25;;;22.40;45.10;;;;;;4771221;55;21520;-39
2022/01/28 13:55:31;;;;;;;253.45;204.32;;;22.40;45.20;;;;;;4772636;55;21091;-46
2022/01/28 14:01:08;;;;;;;260.75;209.50;;;22.40;45.40;;;;;;4794913;55;21127;-42
2022/01/28 14:06:15;;;;;;;;;;;22.40;45.50;;;;;;4756252;55;21006;-53
2022/01/28 14:11:33;;;;;;;258.55;209.32;;;22.40;45.20;;;;;;4757649;55;20057;-46
2022/01/28 14:16:35;;;;;;;257.87;210.85;;;22.40;45.20;;;;;;4743158;55;22377;-45
2022/01/28 14:21:40;;;;;;;246.27;202.15;;;22.40;45.40;;;;;;4757268;55;21128;-51
2022/01/28 14:26:43;;;;;;;247.35;204.60;;;22.40;45.60;;;;;;4771295;55;21037;-37
2022/01/28 14:31:44;;;;;;;246.70;203.80;;;22.40;45.60;;;;;;4744405;55;21017;-41
2022/01/28 14:36:45;;;;;;;249.82;206.45;;;22.40;45.60;;;;;;4738311;59;21085;-49
2022/01/28 14:41:48;;;;;;;249.05;205.45;;;22.30;45.60;;;;;;4746561;55;21119;-41
2022/01/28 14:46:49;;;;;;;245.20;201.12;;;22.30;45.60;;;;;;4741868;55;21515;-44
2022/01/28 14:51:54;;;;;;;246.60;204.68;;;22.30;45.60;;;;;;4738171;59;21057;-42
2022/01/28 14:56:56;;;;;;;247.32;199.93;;;22.30;45.50;;;;;;4738833;55;21118;-42
2022/01/28 15:01:57;;;;;;;246.70;202.05;;;22.40;45.50;;;;;;4738403;59;21014;-43
2022/01/28 15:06:58;;;;;;;247.40;205.37;;;22.40;45.50;;;;;;4767083;55;21112;-39
2022/01/28 15:11:59;;;;;;;243.98;207.32;;;22.30;45.20;;;;;;4763456;55;21046;-39
2022/01/28 15:17:00;;;;;;;258.75;211.68;;;22.10;45.10;;;;;;4738125;55;21116;-47
2022/01/28 15:22:01;;;;;;;248.85;208.13;;;22.10;45.20;;;;;;4743069;55;21086;-49
2022/01/28 15:27:02;;;;;;;251.45;209.07;;;22.00;45.20;;;;;;4815948;55;21186;-38
2022/01/28 15:37:24;;;;;;;250.95;206.43;;;21.80;45.30;;;;;;4739239;55;21551;-39
2022/01/28 15:42:25;;;;;;;259.25;214.68;;;21.70;45.30;;;;;;4754708;55;21014;-39
2022/01/28 15:47:26;;;;;;;254.15;213.15;;;21.60;45.30;;;;;;4740348;55;21606;-37
2022/01/28 15:52:27;;;;;;;257.80;212.57;;;21.60;45.40;;;;;;4755586;55;21029;-47
2022/01/28 15:57:28;;;;;;;254.73;214.38;;;21.50;45.40;;;;;;4743258;55;21488;-43
2022/01/28 16:02:29;;;;;;;262.90;221.57;;;21.40;45.30;;;;;;4737863;59;21026;-37
2022/01/28 16:07:30;;;;;;;255.37;212.48;;;21.30;45.20;;;;;;4753799;55;21056;-37
2022/01/28 16:13:57;;;;;;;261.37;215.40;;;21.30;45.30;;;;;;4759705;55;21991;-39
2022/01/28 16:18:58;;;;;;;260.83;214.05;;;21.30;45.30;;;;;;4741820;55;21579;-47
2022/01/28 16:23:59;;;;;;;270.37;227.65;;;21.20;45.20;;;;;;4737574;56;21002;-42
2022/01/28 16:29:00;;;;;;;259.92;211.85;;;21.10;45.20;;;;;;4763075;55;21559;-41
2022/01/28 16:34:03;;;;;;;279.15;235.82;;;21.10;45.20;;;;;;4751514;55;21002;-40
2022/01/28 16:39:06;;;;;;;270.52;228.55;;;21.10;45.20;;;;;;4737727;59;21535;-41
2022/01/28 16:44:12;;;;;;;267.65;218.18;;;21.00;45.20;;;;;;4756101;55;21452;-38
2022/01/28 16:49:14;;;;;;;273.75;230.35;;;21.00;45.20;;;;;;4773237;55;21464;-40
2022/01/28 16:54:15;;;;;;;264.15;225.10;;;20.90;45.10;;;;;;4743097;55;21214;-42
2022/01/28 16:59:15;;;;;;;269.33;225.68;;;20.90;45.10;;;;;;4738004;55;21002;-39
2022/01/28 17:04:17;;;;;;;271.42;221.48;;;20.90;45.70;;;;;;4763739;55;21069;-35
2022/01/28 17:09:25;;;;;;;285.52;238.98;;;20.80;45.10;;;;;;4763400;55;21006;-42
2022/01/28 17:14:26;;;;;;;282.85;240.23;;;20.80;45.10;;;;;;4750652;55;21038;-46
2022/01/28 17:19:26;;;;;;;283.23;238.18;;;20.80;45.00;;;;;;4752553;55;21037;-43
2022/01/28 17:24:27;;;;;;;273.25;231.20;;;20.80;45.00;;;;;;4737632;59;21953;-44
2022/01/28 17:29:28;;;;;;;266.70;222.98;;;20.70;45.00;;;;;;4744200;55;21125;-36
2022/01/28 17:34:29;;;;;;;280.05;237.15;;;20.70;45.00;;;;;;4745831;55;21041;-42
2022/01/28 17:39:30;;;;;;;268.33;224.77;;;20.70;45.00;;;;;;4757140;55;21507;-36
2022/01/28 17:44:31;;;;;;;271.90;230.82;;;20.70;45.10;;;;;;4744943;55;21038;-39
2022/01/28 17:49:32;;;;;;;279.73;235.27;;;20.70;45.00;;;;;;4785323;55;21618;-42
2022/01/28 17:54:32;;;;;;;272.35;225.82;;;20.70;45.00;;;;;;4764717;55;21599;-44
2022/01/28 17:59:35;;;;;;;290.35;247.30;;;20.60;45.00;;;;;;4768141;55;21061;-36
2022/01/28 18:04:35;;;;;;;284.90;236.60;;;20.60;44.60;;;;;;4742416;55;21622;-41
2022/01/28 18:09:37;;;;;;;290.33;239.23;;;20.60;44.70;;;;;;4757454;55;20994;-35
2022/01/28 18:14:38;;;;;;;276.25;234.25;;;20.60;44.70;;;;;;4804859;55;21038;-35
2022/01/28 18:19:39;;;;;;;272.80;221.70;;;20.50;44.80;;;;;;4745164;55;21465;-44
2022/01/28 18:24:41;;;;;;;283.17;235.82;;;20.50;44.70;;;;;;4737685;55;21619;-38
2022/01/28 18:29:41;;;;;;;273.00;216.25;;;20.50;44.70;;;;;;4744274;55;21009;-36
2022/01/28 18:34:43;;;;;;;270.05;224.00;;;20.50;45.00;;;;;;4770725;55;21483;-46
2022/01/28 18:39:44;;;;;;;270.98;228.05;;;20.50;44.70;;;;;;4790842;55;21065;-45
2022/01/28 18:44:48;;;;;;;264.73;216.18;;;20.50;44.80;;;;;;4737692;59;21517;-41
2022/01/28 18:49:49;;;;;;;270.30;222.25;;;20.40;44.70;;;;;;4790080;55;21555;-44
2022/01/28 18:54:50;;;;;;;264.63;218.32;;;20.40;44.70;;;;;;4751114;55;21077;-44
2022/01/28 18:59:54;;;;;;;257.73;214.63;;;20.40;44.70;;;;;;4753532;55;21121;-39
2022/01/28 19:04:56;;;;;;;275.50;223.10;;;20.40;44.80;;;;;;4739619;55;21078;-38
2022/01/28 19:09:57;;;;;;;259.33;215.62;;;20.40;44.80;;;;;;4742112;55;21049;-36
2022/01/28 19:14:58;;;;;;;266.30;223.35;;;20.40;44.80;;;;;;4759720;55;21563;-38
2022/01/28 19:20:00;;;;;;;261.30;224.90;;;20.40;44.80;;;;;;4763094;55;21074;-41
2022/01/28 19:25:01;;;;;;;262.12;221.32;;;20.30;44.80;;;;;;4771840;55;21038;-42
2022/01/28 19:30:04;;;;;;;274.35;228.15;;;20.30;44.80;;;;;;4748818;55;21037;-43
2022/01/28 19:35:10;;;;;;;252.80;210.52;;;20.30;44.80;;;;;;4737697;59;21093;-42
2022/01/28 19:40:16;;;;;;;260.38;221.40;;;20.30;44.80;;;;;;4737930;56;21487;-35
2022/01/28 19:45:19;;;;;;;253.95;214.18;;;20.30;45.50;;;;;;4737820;59;21061;-43
2022/01/28 19:50:24;;;;;;;245.23;206.50;;;20.30;44.80;;;;;;4737494;59;21006;-35
2022/01/28 19:55:25;;;;;;;241.73;196.10;;;20.30;44.80;;;;;;4742439;55;21492;-40
2022/01/28 20:00:28;;;;;;;259.92;214.50;;;20.30;44.80;;;;;;4738113;59;21014;-48
2022/01/28 20:05:29;;;;;;;258.05;213.55;;;20.20;44.90;;;;;;4737026;55;21085;-42
2022/01/28 20:10:33;;;;;;;252.30;209.15;;;20.20;44.80;;;;;;4739855;55;21575;-42
2022/01/28 20:15:34;;;;;;;230.43;196.00;;;20.20;44.80;;;;;;4737845;55;21065;-41
2022/01/28 20:20:38;;;;;;;248.82;210.07;;;20.20;44.80;;;;;;4762527;55;21048;-36
2022/01/28 20:25:39;;;;;;;239.40;197.80;;;20.20;45.10;;;;;;4741598;55;21073;-38
2022/01/28 20:30:41;;;;;;;235.35;199.45;;;20.20;44.80;;;;;;4842557;55;21069;-45
2022/01/28 20:35:42;;;;;;;224.50;190.07;;;20.20;44.70;;;;;;4753572;55;21599;-45
2022/01/28 20:40:42;;;;;;;231.07;190.50;;;20.20;44.70;;;;;;4743166;55;21070;-34
2022/01/28 20:45:44;;;;;;;228.20;193.18;;;20.20;44.70;;;;;;4756977;55;21062;-41
2022/01/28 20:50:45;;;;;;;227.30;184.23;;;20.20;44.70;;;;;;4749997;55;20998;-37
2022/01/28 20:55:48;;;;;;;233.27;198.30;;;20.20;44.70;;;;;;4741689;55;21014;-44
2022/01/28 21:00:49;;;;;;;225.93;187.90;;;20.10;44.70;;;;;;4743902;55;21033;-43
2022/01/28 21:05:52;;;;;;;232.75;197.95;;;20.20;44.70;;;;;;4746503;55;21117;-42
2022/01/28 21:10:53;;;;;;;225.45;188.55;;;20.10;44.60;;;;;;4763557;55;21546;-36
2022/01/28 21:15:54;;;;;;;219.60;182.73;;;20.10;44.50;;;;;;4753267;55;21143;-46
2022/01/28 21:20:55;;;;;;;221.60;181.48;;;20.10;44.50;;;;;;4770712;55;21025;-37
2022/01/28 21:25:56;;;;;;;217.90;180.50;;;20.10;44.50;;;;;;4754858;55;21096;-35
2022/01/28 21:30:59;;;;;;;213.70;180.55;;;20.10;44.50;;;;;;4737691;59;21421;-43
2022/01/28 21:36:01;;;;;;;213.98;178.27;;;20.10;44.50;;;;;;4737767;59;21496;-37
2022/01/28 21:41:01;;;;;;;216.45;183.32;;;20.10;44.50;;;;;;4773315;55;20994;-37
2022/01/28 21:46:03;;;;;;;206.07;169.15;;;20.10;44.50;;;;;;4757489;55;21523;-40
2022/01/28 21:51:04;;;;;;;210.25;175.45;;;20.10;44.40;;;;;;4764908;55;21057;-43
2022/01/28 21:56:06;;;;;;;211.07;171.40;;;20.00;45.00;;;;;;4741408;55;22024;-36
2022/01/28 22:01:07;;;;;;;211.60;175.35;;;20.00;44.30;;;;;;4774207;55;21049;-37
2022/01/28 22:06:08;;;;;;;209.40;170.87;;;20.00;44.30;;;;;;4749430;55;21078;-44
2022/01/28 22:11:09;;;;;;;199.05;158.32;;;20.00;44.30;;;;;;4750979;55;21049;-36
2022/01/28 22:16:10;;;;;;;198.50;158.65;;;20.00;44.30;;;;;;4748253;55;21034;-36
2022/01/28 22:21:10;;;;;;;207.15;170.27;;;20.00;44.30;;;;;;4751540;55;21002;-35
2022/01/28 22:26:11;;;;;;;208.87;171.32;;;20.00;44.20;;;;;;4748493;55;21057;-37
2022/01/28 22:31:13;;;;;;;201.60;166.90;;;20.00;44.20;;;;;;4753708;55;21065;-39
2022/01/28 22:36:14;;;;;;;204.00;170.55;;;20.00;44.20;;;;;;4742007;55;21041;-38
2022/01/28 22:41:15;;;;;;;200.45;163.02;;;20.00;44.20;;;;;;4756209;55;21750;-39
2022/01/28 22:46:17;;;;;;;187.55;154.45;;;19.90;44.10;;;;;;4752215;55;21021;-40
2022/01/28 22:51:17;;;;;;;191.82;158.73;;;20.00;44.10;;;;;;4766943;55;21472;-45
2022/01/28 22:56:18;;;;;;;190.60;157.12;;;19.90;44.00;;;;;;4756503;55;21113;-41
2022/01/28 23:01:19;;;;;;;194.82;164.40;;;19.90;44.00;;;;;;4758794;55;21479;-36
2022/01/28 23:06:23;;;;;;;201.75;163.60;;;19.90;44.00;;;;;;4754410;55;21057;-42
2022/01/28 23:11:24;;;;;;;186.52;149.25;;;19.90;44.00;;;;;;4743368;55;21540;-35
2022/01/28 23:16:25;;;;;;;191.18;153.65;;;19.90;43.90;;;;;;4762311;55;21575;-38
2022/01/28 23:21:27;;;;;;;200.13;160.10;;;19.90;43.90;;;;;;4754945;55;21006;-36
2022/01/28 23:26:28;;;;;;;190.20;154.50;;;19.90;44.00;;;;;;4749184;55;21022;-38
2022/01/28 23:31:29;;;;;;;184.32;150.48;;;19.90;43.90;;;;;;4738157;59;21014;-39
2022/01/28 23:36:30;;;;;;;193.95;159.70;;;19.90;43.80;;;;;;4762382;55;21038;-51
2022/01/28 23:41:31;;;;;;;193.00;156.93;;;19.90;43.80;;;;;;4754982;55;21113;-41
2022/01/28 23:46:32;;;;;;;196.20;160.10;;;19.90;43.80;;;;;;4765245;55;21925;-43
2022/01/28 23:51:34;;;;;;;192.15;156.63;;;19.80;43.70;;;;;;4777681;55;21006;-47
2022/01/28 23:56:37;;;;;;;192.82;155.18;;;19.90;43.80;;;;;;4758145;55;21480;-43
